Time;durP1;ratioP1;P1;durP2;ratioP2;P2;SDS_P1;SDS_P2;PMS_P1;PMS_P2;Temp;Humidity;BMP_temperature;BMP_pressure;BME280_temperature;BME280_humidity;BME280_pressure;Samples;Min_cycle;Max_cycle;Signal;HPM_P1;HPM_P2
2023/05/22 00:01:43;;;;;;;;;;;19.80;60.30;;;;;;5114903;28;19919;-73
2023/05/22 00:04:12;;;;;;;;;;;19.80;60.40;;;;;;5128096;27;20354;-73
2023/05/22 00:06:41;;;;;;;;;;;19.80;60.30;;;;;;5094380;28;19919;-73
2023/05/22 00:09:06;;;;;;;;;;;19.80;60.30;;;;;;5093992;28;19977;-73
2023/05/22 00:11:33;;;;;;;;;;;19.80;60.40;;;;;;5093653;28;19924;-73
2023/05/22 00:13:59;;;;;;;;;;;19.80;60.40;;;;;;5094080;28;20007;-73
2023/05/22 00:16:24;;;;;;;;;;;19.80;60.50;;;;;;5094350;28;20046;-73
2023/05/22 00:18:50;;;;;;;;;;;19.80;60.50;;;;;;5094348;28;20287;-73
2023/05/22 00:21:15;;;;;;;;;;;19.80;60.50;;;;;;5094304;28;19924;-73
2023/05/22 00:23:41;;;;;;;;;;;19.80;60.50;;;;;;5094057;28;19927;-73
2023/05/22 00:26:07;;;;;;;;;;;19.80;60.50;;;;;;5094362;28;19919;-73
2023/05/22 00:28:32;;;;;;;;;;;19.80;60.50;;;;;;5093653;28;19927;-72
2023/05/22 00:30:58;;;;;;;;;;;19.80;60.60;;;;;;5112638;28;19924;-72
2023/05/22 00:33:23;;;;;;;;;;;19.80;60.60;;;;;;5112284;28;20283;-72
2023/05/22 00:35:49;;;;;;;;;;;19.80;60.60;;;;;;5113703;28;19967;-72
2023/05/22 00:38:31;;;;;;;;;;;19.80;60.60;;;;;;5115847;28;20004;-71
2023/05/22 00:40:58;;;;;;;;;;;19.80;60.60;;;;;;5097564;28;19966;-71
2023/05/22 00:43:23;;;;;;;;;;;19.80;60.60;;;;;;5096595;28;19920;-71
2023/05/22 00:45:49;;;;;;;;;;;19.80;60.70;;;;;;5097353;28;20057;-71
2023/05/22 00:48:15;;;;;;;;;;;19.80;60.70;;;;;;5097247;28;19950;-71
2023/05/22 00:50:41;;;;;;;;;;;19.80;60.70;;;;;;5115920;28;19920;-71
2023/05/22 00:53:06;;;;;;;;;;;19.80;60.70;;;;;;5097273;28;19924;-71
2023/05/22 00:55:32;;;;;;;;;;;19.80;60.70;;;;;;5097163;28;19970;-71
2023/05/22 00:57:58;;;;;;;;;;;19.80;60.80;;;;;;5097340;28;19920;-71
2023/05/22 01:00:23;;;;;;;;;;;19.80;60.80;;;;;;5097152;28;19924;-71
2023/05/22 01:02:50;;;;;;;;;;;19.80;60.90;;;;;;5097190;28;20286;-70
2023/05/22 01:05:16;;;;;;;;;;;19.80;60.90;;;;;;5097311;28;19931;-71
2023/05/22 01:07:43;;;;;;;;;;;19.80;61.20;;;;;;5096988;28;19953;-71
2023/05/22 01:10:09;;;;;;;;;;;19.80;62.40;;;;;;5096898;28;19926;-71
2023/05/22 01:12:41;;;;;;;;;;;19.90;62.20;;;;;;5097311;28;20332;-71
2023/05/22 01:15:27;;;;;;;;;;;20.00;61.90;;;;;;5097145;28;19965;-71
2023/05/22 01:17:57;;;;;;;;;;;20.10;61.50;;;;;;5096715;28;19924;-71
2023/05/22 01:20:32;;;;;;;;;;;20.20;61.30;;;;;;5096301;28;19976;-71
2023/05/22 01:23:18;;;;;;;;;;;20.20;61.40;;;;;;5096558;28;19920;-71
2023/05/22 01:25:55;;;;;;;;;;;20.30;61.20;;;;;;5096737;28;20375;-71
2023/05/22 01:31:05;;;;;;;;;;;20.40;60.90;;;;;;5089930;28;19944;-71
2023/05/22 01:33:32;;;;;;;;;;;20.40;60.90;;;;;;5088531;28;19920;-71
2023/05/22 01:35:59;;;;;;;;;;;20.50;60.80;;;;;;5088431;28;19970;-71
2023/05/22 01:38:25;;;;;;;;;;;20.40;60.80;;;;;;5088788;28;20027;-71
2023/05/22 01:40:51;;;;;;;;;;;20.50;60.70;;;;;;5088425;28;19999;-71
2023/05/22 01:43:17;;;;;;;;;;;20.50;60.70;;;;;;5088835;28;19920;-71
2023/05/22 01:45:42;;;;;;;;;;;20.50;60.70;;;;;;5088276;28;19931;-71
2023/05/22 01:48:08;;;;;;;;;;;20.50;60.60;;;;;;5089663;28;19920;-73
2023/05/22 01:50:34;;;;;;;;;;;20.60;60.80;;;;;;5088362;28;20275;-71
2023/05/22 01:55:46;;;;;;;;;;;20.60;60.70;;;;;;5109976;27;19912;-71
2023/05/22 01:58:29;;;;;;;;;;;20.60;60.60;;;;;;5109180;28;19920;-71
2023/05/22 02:00:57;;;;;;;;;;;20.60;60.50;;;;;;5109157;28;20389;-72
2023/05/22 02:03:26;;;;;;;;;;;20.70;60.50;;;;;;5108808;28;20014;-72
2023/05/22 02:05:52;;;;;;;;;;;20.70;60.60;;;;;;5109059;28;19920;-71
2023/05/22 02:08:18;;;;;;;;;;;20.60;60.40;;;;;;5108728;28;19973;-72
2023/05/22 02:10:45;;;;;;;;;;;20.70;60.50;;;;;;5109004;28;19920;-72
2023/05/22 02:13:10;;;;;;;;;;;20.70;60.40;;;;;;5108514;28;19927;-72
2023/05/22 02:15:36;;;;;;;;;;;20.70;60.40;;;;;;5108949;28;19920;-72
2023/05/22 02:18:02;;;;;;;;;;;20.70;60.40;;;;;;5108781;28;20302;-71
2023/05/22 02:20:28;;;;;;;;;;;20.70;60.40;;;;;;5108775;28;19931;-71
2023/05/22 02:22:53;;;;;;;;;;;20.70;60.40;;;;;;5108507;28;19924;-71
2023/05/22 02:25:19;;;;;;;;;;;20.70;60.40;;;;;;5109870;28;19986;-71
2023/05/22 02:27:46;;;;;;;;;;;20.70;60.40;;;;;;5109701;28;19920;-71
2023/05/22 02:30:12;;;;;;;;;;;20.70;60.40;;;;;;5107919;28;19934;-72
2023/05/22 02:32:38;;;;;;;;;;;20.70;60.40;;;;;;5108020;28;19920;-72
2023/05/22 02:35:03;;;;;;;;;;;20.70;60.40;;;;;;5108241;28;19924;-72
2023/05/22 02:37:29;;;;;;;;;;;20.70;60.40;;;;;;5108199;28;19926;-71
2023/05/22 02:39:55;;;;;;;;;;;20.80;60.40;;;;;;5108502;28;19920;-71
2023/05/22 02:42:20;;;;;;;;;;;20.80;60.40;;;;;;5108125;28;20447;-72
2023/05/22 02:44:46;;;;;;;;;;;20.70;60.30;;;;;;5108102;28;19927;-72
2023/05/22 02:47:11;;;;;;;;;;;20.80;60.50;;;;;;5108233;28;20276;-72
2023/05/22 02:49:37;;;;;;;;;;;20.70;60.40;;;;;;5108356;28;20111;-73
2023/05/22 02:52:02;;;;;;;;;;;20.80;60.40;;;;;;5108001;28;20401;-72
2023/05/22 02:54:28;;;;;;;;;;;20.80;60.30;;;;;;5107787;28;19932;-71
2023/05/22 02:56:54;;;;;;;;;;;20.80;60.40;;;;;;5108085;28;20283;-71
2023/05/22 02:59:20;;;;;;;;;;;20.80;60.40;;;;;;5107715;28;19956;-72
2023/05/22 03:01:47;;;;;;;;;;;20.80;60.30;;;;;;5108051;28;19966;-72
2023/05/22 03:04:12;;;;;;;;;;;20.80;60.30;;;;;;5107834;28;20034;-72
2023/05/22 03:06:38;;;;;;;;;;;20.80;60.30;;;;;;5096422;28;20371;-72
2023/05/22 03:09:04;;;;;;;;;;;20.80;60.30;;;;;;5093932;28;19920;-72
2023/05/22 03:11:30;;;;;;;;;;;20.80;60.30;;;;;;5094330;28;19920;-71
2023/05/22 03:13:56;;;;;;;;;;;20.80;60.30;;;;;;5095111;28;19963;-71
2023/05/22 03:16:21;;;;;;;;;;;20.80;60.30;;;;;;5095261;28;20013;-72
2023/05/22 03:18:49;;;;;;;;;;;20.80;60.30;;;;;;5093850;28;19972;-73
2023/05/22 03:21:14;;;;;;;;;;;20.80;60.30;;;;;;5094045;28;20033;-72
2023/05/22 03:23:40;;;;;;;;;;;20.80;60.30;;;;;;5093948;28;20002;-72
2023/05/22 03:26:05;;;;;;;;;;;20.80;60.20;;;;;;5094086;28;19928;-71
2023/05/22 03:28:30;;;;;;;;;;;20.80;60.20;;;;;;5093608;28;19966;-72
2023/05/22 03:30:56;;;;;;;;;;;20.80;60.20;;;;;;5093688;28;19969;-72
2023/05/22 03:33:21;;;;;;;;;;;20.90;60.20;;;;;;5093717;28;20011;-72
2023/05/22 03:35:47;;;;;;;;;;;20.90;60.20;;;;;;5093769;28;19927;-72
2023/05/22 03:38:12;;;;;;;;;;;20.90;60.20;;;;;;5093066;28;19969;-71
2023/05/22 03:40:38;;;;;;;;;;;20.90;60.20;;;;;;5093250;28;19963;-72
2023/05/22 03:43:03;;;;;;;;;;;20.90;60.10;;;;;;5093440;28;19973;-72
2023/05/22 03:45:29;;;;;;;;;;;20.90;60.10;;;;;;5094581;28;19928;-73
2023/05/22 03:47:54;;;;;;;;;;;20.90;60.10;;;;;;5094605;28;20006;-72
2023/05/22 03:50:20;;;;;;;;;;;20.90;60.10;;;;;;5093141;28;20398;-72
2023/05/22 03:52:45;;;;;;;;;;;20.90;60.10;;;;;;5093520;28;19924;-71
2023/05/22 03:55:11;;;;;;;;;;;20.90;60.10;;;;;;5093054;28;19924;-72
2023/05/22 03:57:36;;;;;;;;;;;20.90;60.10;;;;;;5093329;28;20053;-72
2023/05/22 04:00:08;;;;;;;;;;;20.90;60.10;;;;;;5093056;28;19989;-72
2023/05/22 04:02:34;;;;;;;;;;;20.90;60.10;;;;;;5094363;28;20296;-72
2023/05/22 04:05:00;;;;;;;;;;;20.90;60.10;;;;;;5092882;28;20053;-72
2023/05/22 04:07:25;;;;;;;;;;;20.90;60.00;;;;;;5094184;28;20015;-71
2023/05/22 04:09:51;;;;;;;;;;;20.90;60.00;;;;;;5093352;28;20000;-72
2023/05/22 04:12:16;;;;;;;;;;;21.00;60.10;;;;;;5092971;28;19920;-72
2023/05/22 04:14:41;;;;;;;;;;;21.00;60.00;;;;;;5092718;28;19928;-71
2023/05/22 04:17:07;;;;;;;;;;;20.90;60.00;;;;;;5092010;28;19926;-72
2023/05/22 04:19:32;;;;;;;;;;;21.00;60.00;;;;;;5092768;28;20433;-72
2023/05/22 04:21:58;;;;;;;;;;;21.00;60.00;;;;;;5093764;28;19924;-72
2023/05/22 04:24:24;;;;;;;;;;;21.00;60.00;;;;;;5092583;28;19920;-72
2023/05/22 04:26:49;;;;;;;;;;;21.00;59.90;;;;;;5092550;28;19920;-72
2023/05/22 04:29:15;;;;;;;;;;;21.00;59.90;;;;;;5092809;28;19920;-72
2023/05/22 04:31:41;;;;;;;;;;;21.00;59.90;;;;;;5092699;28;20379;-72
2023/05/22 04:34:10;;;;;;;;;;;21.00;59.80;;;;;;5092575;28;19924;-72
2023/05/22 04:36:37;;;;;;;;;;;21.00;59.80;;;;;;5093558;28;19920;-72
2023/05/22 04:39:03;;;;;;;;;;;21.00;59.80;;;;;;5092622;28;20371;-73
2023/05/22 04:41:29;;;;;;;;;;;21.00;59.70;;;;;;5092223;28;19919;-72
2023/05/22 04:43:55;;;;;;;;;;;21.10;59.80;;;;;;5092191;28;19935;-70
2023/05/22 04:46:20;;;;;;;;;;;21.10;59.80;;;;;;5092451;28;19920;-72
2023/05/22 04:48:46;;;;;;;;;;;21.00;59.70;;;;;;5093388;28;19927;-72
2023/05/22 04:51:13;;;;;;;;;;;21.00;59.70;;;;;;5092332;28;20015;-72
2023/05/22 04:53:38;;;;;;;;;;;21.10;59.70;;;;;;5091742;28;20006;-70
2023/05/22 04:56:04;;;;;;;;;;;21.00;59.80;;;;;;5092337;28;19932;-72
2023/05/22 04:58:30;;;;;;;;;;;21.00;59.80;;;;;;5091821;28;19920;-72
2023/05/22 05:00:56;;;;;;;;;;;21.00;59.80;;;;;;5092286;28;19927;-72
2023/05/22 05:03:22;;;;;;;;;;;21.00;59.90;;;;;;5092160;28;19920;-72
2023/05/22 05:05:47;;;;;;;;;;;21.00;59.80;;;;;;5091348;28;19976;-72
2023/05/22 05:08:13;;;;;;;;;;;21.00;59.90;;;;;;5092793;28;19971;-73
2023/05/22 05:10:38;;;;;;;;;;;21.00;59.80;;;;;;5091713;28;19920;-73
2023/05/22 05:13:04;;;;;;;;;;;21.00;59.90;;;;;;5092958;28;19920;-72
2023/05/22 05:15:29;;;;;;;;;;;21.00;59.90;;;;;;5091627;28;20368;-72
2023/05/22 05:17:55;;;;;;;;;;;21.00;59.90;;;;;;5092877;28;19920;-72
2023/05/22 05:20:21;;;;;;;;;;;21.00;60.00;;;;;;5091614;28;19920;-73
2023/05/22 05:22:46;;;;;;;;;;;21.00;60.00;;;;;;5092745;28;19978;-72
2023/05/22 05:25:12;;;;;;;;;;;20.90;59.90;;;;;;5090434;28;19920;-72
2023/05/22 05:27:37;;;;;;;;;;;21.00;60.00;;;;;;5090054;28;20013;-73
2023/05/22 05:30:03;;;;;;;;;;;21.00;60.00;;;;;;5090573;28;19920;-73
2023/05/22 05:32:29;;;;;;;;;;;21.00;60.40;;;;;;5091702;28;20359;-74
2023/05/22 05:34:55;;;;;;;;;;;21.00;61.20;;;;;;5090410;28;19939;-73
2023/05/22 05:37:21;;;;;;;;;;;21.00;62.40;;;;;;5089596;28;19928;-73
2023/05/22 05:39:46;;;;;;;;;;;21.00;62.70;;;;;;5090817;28;19965;-73
2023/05/22 05:42:12;;;;;;;;;;;21.00;62.80;;;;;;5089224;28;20126;-73
2023/05/22 05:44:37;;;;;;;;;;;20.90;63.10;;;;;;5091111;28;19924;-73
2023/05/22 05:47:03;;;;;;;;;;;20.90;65.00;;;;;;5090199;28;20015;-73
2023/05/22 05:49:28;;;;;;;;;;;20.90;64.20;;;;;;5090789;28;19964;-73
2023/05/22 05:51:54;;;;;;;;;;;20.80;66.00;;;;;;5076721;28;19931;-73
2023/05/22 05:54:20;;;;;;;;;;;20.80;66.40;;;;;;5072514;28;19946;-72
2023/05/22 05:56:46;;;;;;;;;;;20.70;66.40;;;;;;5091079;28;20059;-73
2023/05/22 05:59:11;;;;;;;;;;;20.70;67.10;;;;;;5074537;28;20003;-74
2023/05/22 06:01:38;;;;;;;;;;;20.70;67.10;;;;;;5072313;28;19927;-70
2023/05/22 06:04:04;;;;;;;;;;;20.70;67.50;;;;;;5106993;28;19921;-73
2023/05/22 06:06:34;;;;;;;;;;;20.70;67.90;;;;;;5104771;28;20418;-73
2023/05/22 06:09:01;;;;;;;;;;;20.70;68.80;;;;;;5106461;28;19927;-73
2023/05/22 06:11:26;;;;;;;;;;;20.70;68.10;;;;;;5080485;28;19925;-73
2023/05/22 06:13:52;;;;;;;;;;;20.80;67.20;;;;;;5076236;28;19935;-73
2023/05/22 06:16:18;;;;;;;;;;;20.80;67.20;;;;;;5072640;28;19931;-67
2023/05/22 06:18:45;;;;;;;;;;;20.80;66.90;;;;;;5075355;28;20383;-69
2023/05/22 06:21:10;;;;;;;;;;;20.90;66.80;;;;;;5071294;28;19934;-69
2023/05/22 06:23:36;;;;;;;;;;;20.90;66.70;;;;;;5074254;28;20022;-69
2023/05/22 06:26:01;;;;;;;;;;;21.00;66.50;;;;;;5071212;28;19924;-71
2023/05/22 06:28:27;;;;;;;;;;;21.00;66.40;;;;;;5054580;28;20237;-69
2023/05/22 06:30:52;;;;;;;;;;;21.00;66.30;;;;;;5065897;28;19929;-73
2023/05/22 06:33:18;;;;;;;;;;;21.10;66.10;;;;;;5102330;28;20042;-75
2023/05/22 06:35:43;;;;;;;;;;;21.10;65.70;;;;;;5061214;28;19963;-72
2023/05/22 06:38:09;;;;;;;;;;;21.20;65.70;;;;;;5067336;28;19924;-72
2023/05/22 06:40:34;;;;;;;;;;;21.10;65.40;;;;;;5064133;28;19982;-72
2023/05/22 06:43:00;;;;;;;;;;;21.20;65.80;;;;;;5071666;28;19946;-71
2023/05/22 06:45:25;;;;;;;;;;;21.10;65.80;;;;;;5077200;28;19921;-72
2023/05/22 06:47:52;;;;;;;;;;;21.10;65.60;;;;;;5073866;28;19924;-72
2023/05/22 06:50:17;;;;;;;;;;;21.20;65.60;;;;;;5079515;28;19973;-73
2023/05/22 06:52:42;;;;;;;;;;;21.20;65.60;;;;;;5076538;28;19931;-66
2023/05/22 06:55:08;;;;;;;;;;;21.20;65.50;;;;;;5090718;28;19931;-69
2023/05/22 06:57:34;;;;;;;;;;;21.20;65.40;;;;;;5076498;28;20037;-72
2023/05/22 06:59:59;;;;;;;;;;;21.20;65.50;;;;;;5080270;28;20547;-71
2023/05/22 07:02:25;;;;;;;;;;;21.20;65.50;;;;;;5090976;27;20256;-67
2023/05/22 07:04:52;;;;;;;;;;;21.30;65.60;;;;;;5071060;28;19924;-69
2023/05/22 07:07:17;;;;;;;;;;;21.30;65.70;;;;;;5073259;28;19924;-69
2023/05/22 07:09:43;;;;;;;;;;;21.30;66.00;;;;;;5073438;28;19947;-68
2023/05/22 07:12:08;;;;;;;;;;;21.30;65.90;;;;;;5092933;27;19958;-69
2023/05/22 07:14:34;;;;;;;;;;;21.30;65.90;;;;;;5074226;28;19928;-69
2023/05/22 07:16:59;;;;;;;;;;;21.30;66.20;;;;;;5092723;28;19974;-68
2023/05/22 07:19:25;;;;;;;;;;;21.30;66.40;;;;;;5093041;28;20321;-70
2023/05/22 07:21:50;;;;;;;;;;;21.30;66.60;;;;;;5072158;28;19975;-68
2023/05/22 07:24:16;;;;;;;;;;;21.30;66.60;;;;;;5075918;28;19924;-69
2023/05/22 07:26:45;;;;;;;;;;;21.30;66.60;;;;;;5068683;28;20298;-69
2023/05/22 07:29:11;;;;;;;;;;;21.30;66.60;;;;;;5099804;27;19924;-68
2023/05/22 07:31:37;;;;;;;;;;;21.30;66.60;;;;;;5106948;27;20611;-69
2023/05/22 07:34:03;;;;;;;;;;;21.30;66.70;;;;;;5072091;27;20413;-69
2023/05/22 07:36:29;;;;;;;;;;;21.20;66.60;;;;;;5068421;28;19920;-68
2023/05/22 07:38:54;;;;;;;;;;;21.20;66.50;;;;;;5089605;28;20614;-68
2023/05/22 07:41:20;;;;;;;;;;;21.30;66.60;;;;;;5090750;27;19950;-68
2023/05/22 07:43:46;;;;;;;;;;;21.30;66.60;;;;;;5071690;28;20575;-67
2023/05/22 07:46:11;;;;;;;;;;;21.30;66.60;;;;;;5093518;28;19978;-66
2023/05/22 07:48:37;;;;;;;;;;;21.30;66.70;;;;;;5094341;28;19985;-68
2023/05/22 07:51:03;;;;;;;;;;;21.30;66.80;;;;;;5095403;27;20002;-67
2023/05/22 07:53:28;;;;;;;;;;;21.30;66.80;;;;;;5077231;28;20399;-67
2023/05/22 07:55:54;;;;;;;;;;;21.30;66.90;;;;;;5090441;28;19936;-72
2023/05/22 07:58:19;;;;;;;;;;;21.30;66.90;;;;;;5078412;28;19924;-72
2023/05/22 08:00:45;;;;;;;;;;;21.30;67.00;;;;;;5066786;28;20536;-70
2023/05/22 08:03:10;;;;;;;;;;;21.30;66.90;;;;;;5071277;28;19981;-71
2023/05/22 08:05:36;;;;;;;;;;;21.30;67.00;;;;;;5107170;27;19930;-71
2023/05/22 08:08:02;;;;;;;;;;;21.30;66.90;;;;;;5072751;28;20879;-70
2023/05/22 08:10:28;;;;;;;;;;;21.30;66.90;;;;;;5081104;28;20267;-68
2023/05/22 08:12:53;;;;;;;;;;;21.30;66.90;;;;;;5076582;28;19931;-71
2023/05/22 08:15:19;;;;;;;;;;;21.30;66.80;;;;;;5076289;28;19927;-71
2023/05/22 08:17:44;;;;;;;;;;;21.30;67.00;;;;;;5077383;28;20022;-70
2023/05/22 08:20:10;;;;;;;;;;;21.30;67.00;;;;;;5090256;28;19928;-72
2023/05/22 08:22:37;;;;;;;;;;;21.40;67.10;;;;;;5104142;27;19932;-69
2023/05/22 08:25:03;;;;;;;;;;;21.40;67.20;;;;;;5072207;27;19928;-70
2023/05/22 08:27:28;;;;;;;;;;;21.40;67.20;;;;;;5077124;28;20515;-71
2023/05/22 08:29:55;;;;;;;;;;;21.40;67.20;;;;;;5093024;27;19931;-70
2023/05/22 08:32:20;;;;;;;;;;;21.40;67.20;;;;;;5070898;28;20460;-69
2023/05/22 08:34:46;;;;;;;;;;;21.40;67.10;;;;;;5088717;27;19924;-70
2023/05/22 08:37:13;;;;;;;;;;;21.40;67.10;;;;;;5074984;28;19924;-71
2023/05/22 08:39:39;;;;;;;;;;;21.40;67.00;;;;;;5081978;28;19936;-71
2023/05/22 08:42:05;;;;;;;;;;;21.30;67.00;;;;;;5092652;28;19927;-70
2023/05/22 08:44:30;;;;;;;;;;;21.30;67.00;;;;;;5104690;27;19931;-65
2023/05/22 08:46:58;;;;;;;;;;;21.30;66.80;;;;;;5094364;28;19935;-66
2023/05/22 08:49:24;;;;;;;;;;;21.30;67.00;;;;;;5071354;28;19928;-67
2023/05/22 08:51:52;;;;;;;;;;;21.30;67.00;;;;;;5068056;28;19952;-67
2023/05/22 08:54:20;;;;;;;;;;;21.30;67.00;;;;;;5070967;28;19927;-66
2023/05/22 08:56:48;;;;;;;;;;;21.20;67.10;;;;;;5091471;28;19959;-66
2023/05/22 08:59:14;;;;;;;;;;;21.30;67.10;;;;;;5092193;28;19923;-66
2023/05/22 09:01:39;;;;;;;;;;;21.20;67.10;;;;;;5069605;28;19938;-66
2023/05/22 09:04:05;;;;;;;;;;;21.20;67.10;;;;;;5087550;28;19924;-66
2023/05/22 09:06:31;;;;;;;;;;;21.30;67.40;;;;;;5067754;28;19930;-67
2023/05/22 09:08:57;;;;;;;;;;;21.30;67.50;;;;;;5063271;28;19928;-67
2023/05/22 09:11:23;;;;;;;;;;;21.30;67.50;;;;;;5066219;28;19964;-67
2023/05/22 09:13:50;;;;;;;;;;;21.30;67.40;;;;;;5069087;28;20038;-68
2023/05/22 09:16:16;;;;;;;;;;;21.40;67.90;;;;;;5070860;28;19924;-66
2023/05/22 09:18:42;;;;;;;;;;;21.40;67.80;;;;;;5071278;28;19965;-66
2023/05/22 09:21:08;;;;;;;;;;;21.40;68.00;;;;;;5088339;28;20287;-71
2023/05/22 09:23:33;;;;;;;;;;;21.40;67.90;;;;;;5091328;28;20323;-67
2023/05/22 09:25:59;;;;;;;;;;;21.50;67.90;;;;;;5070029;28;19969;-66
2023/05/22 09:28:25;;;;;;;;;;;21.50;67.70;;;;;;5088621;28;19924;-66
2023/05/22 09:30:52;;;;;;;;;;;21.50;67.60;;;;;;5073183;28;19993;-66
2023/05/22 09:33:18;;;;;;;;;;;21.50;67.70;;;;;;5071464;28;20015;-70
2023/05/22 09:35:45;;;;;;;;;;;21.50;67.40;;;;;;5067985;28;19932;-73
2023/05/22 09:38:10;;;;;;;;;;;21.50;67.70;;;;;;5069124;28;19924;-72
2023/05/22 09:40:36;;;;;;;;;;;21.50;67.70;;;;;;5068743;28;19920;-74
2023/05/22 09:43:05;;;;;;;;;;;21.50;67.20;;;;;;5068339;28;20024;-75
2023/05/22 09:45:33;;;;;;;;;;;21.50;66.90;;;;;;5072933;28;20408;-73
2023/05/22 09:47:58;;;;;;;;;;;21.40;66.90;;;;;;5072759;28;19953;-74
2023/05/22 09:50:23;;;;;;;;;;;21.40;67.50;;;;;;5084813;28;19935;-74
2023/05/22 09:52:49;;;;;;;;;;;21.40;67.50;;;;;;5104713;27;19924;-71
2023/05/22 09:55:15;;;;;;;;;;;21.40;67.60;;;;;;5043601;28;19967;-71
2023/05/22 09:57:42;;;;;;;;;;;21.40;67.40;;;;;;5052630;28;19929;-72
2023/05/22 10:00:14;;;;;;;;;;;21.40;67.30;;;;;;5050425;28;19935;-76
2023/05/22 10:02:43;;;;;;;;;;;21.40;67.80;;;;;;5083114;28;20113;-70
2023/05/22 10:05:09;;;;;;;;;;;21.40;67.50;;;;;;5054733;28;20558;-70
2023/05/22 10:07:36;;;;;;;;;;;21.40;67.60;;;;;;5053102;28;19924;-71
2023/05/22 10:10:03;;;;;;;;;;;21.40;67.60;;;;;;5056007;28;19920;-68
2023/05/22 10:12:31;;;;;;;;;;;21.40;67.80;;;;;;5057650;28;20051;-69
2023/05/22 10:14:57;;;;;;;;;;;21.40;67.80;;;;;;5086990;28;19928;-68
2023/05/22 10:17:23;;;;;;;;;;;21.40;67.90;;;;;;5090025;28;19977;-71
2023/05/22 10:19:49;;;;;;;;;;;21.50;67.90;;;;;;5064264;28;19960;-71
2023/05/22 10:22:19;;;;;;;;;;;21.50;67.80;;;;;;5083589;28;20007;-71
2023/05/22 10:24:46;;;;;;;;;;;21.50;67.60;;;;;;5062982;28;20031;-70
2023/05/22 10:27:12;;;;;;;;;;;21.50;67.20;;;;;;5060986;28;19924;-71
2023/05/22 10:29:42;;;;;;;;;;;21.40;66.80;;;;;;5060029;28;20022;-71
2023/05/22 10:32:13;;;;;;;;;;;21.40;66.80;;;;;;5096169;28;20022;-71
2023/05/22 10:34:46;;;;;;;;;;;21.40;66.80;;;;;;5064216;28;20446;-71
2023/05/22 10:42:38;;;;;;;;;;;21.30;66.60;;;;;;5083146;27;19920;-73
2023/05/22 10:45:07;;;;;;;;;;;21.30;67.30;;;;;;5063660;28;20566;-72
2023/05/22 10:47:33;;;;;;;;;;;21.40;67.50;;;;;;5063624;28;19935;-72
2023/05/22 10:50:03;;;;;;;;;;;21.40;67.70;;;;;;5063288;28;19924;-70
2023/05/22 10:52:29;;;;;;;;;;;21.40;68.10;;;;;;5064987;28;19924;-70
2023/05/22 10:54:55;;;;;;;;;;;21.50;68.30;;;;;;5059524;28;20144;-67
2023/05/22 10:57:22;;;;;;;;;;;21.50;68.20;;;;;;5078478;28;20007;-69
2023/05/22 10:59:48;;;;;;;;;;;21.60;68.30;;;;;;5064512;28;19946;-65
2023/05/22 11:02:18;;;;;;;;;;;21.60;68.20;;;;;;5062675;28;19928;-68
2023/05/22 11:04:43;;;;;;;;;;;21.60;68.30;;;;;;5074339;28;20034;-68
2023/05/22 11:07:12;;;;;;;;;;;21.60;68.20;;;;;;5065646;28;20011;-69
2023/05/22 11:15:10;;;;;;;;;;;21.50;68.00;;;;;;5086735;27;19927;-69
2023/05/22 11:20:21;;;;;;;;;;;21.40;67.80;;;;;;5081294;27;20456;-68
2023/05/22 11:22:54;;;;;;;;;;;21.40;67.70;;;;;;5080785;28;19951;-68
2023/05/22 11:25:20;;;;;;;;;;;21.40;67.70;;;;;;5077711;28;20576;-66
2023/05/22 11:27:46;;;;;;;;;;;21.30;68.00;;;;;;5065624;28;20031;-69
2023/05/22 11:30:13;;;;;;;;;;;21.30;68.20;;;;;;5106757;27;20314;-68
2023/05/22 11:32:40;;;;;;;;;;;21.30;67.90;;;;;;5075618;28;20387;-68
2023/05/22 11:35:07;;;;;;;;;;;21.30;68.10;;;;;;5073525;28;19959;-67
2023/05/22 11:37:36;;;;;;;;;;;21.30;69.10;;;;;;5075402;28;19973;-68
2023/05/22 11:40:04;;;;;;;;;;;21.40;69.50;;;;;;5109867;27;20416;-69
2023/05/22 11:42:30;;;;;;;;;;;21.40;69.50;;;;;;5071596;28;19950;-71
2023/05/22 11:44:55;;;;;;;;;;;21.50;69.70;;;;;;5073857;28;19924;-68
2023/05/22 11:47:21;;;;;;;;;;;21.50;69.80;;;;;;5078624;28;19971;-68
2023/05/22 11:49:46;;;;;;;;;;;21.60;69.90;;;;;;5077947;28;20030;-67
2023/05/22 11:52:12;;;;;;;;;;;21.80;70.10;;;;;;5074505;28;19924;-66
2023/05/22 11:54:37;;;;;;;;;;;21.80;70.00;;;;;;5081768;28;19981;-68
2023/05/22 11:57:05;;;;;;;;;;;21.90;69.50;;;;;;5081548;28;19930;-68
2023/05/22 11:59:31;;;;;;;;;;;21.90;69.50;;;;;;5080609;28;20210;-68
2023/05/22 12:01:58;;;;;;;;;;;21.90;69.30;;;;;;5083188;28;20387;-69
2023/05/22 12:04:24;;;;;;;;;;;22.00;69.20;;;;;;5078988;28;20010;-69
2023/05/22 12:06:50;;;;;;;;;;;22.00;69.00;;;;;;5075279;28;19924;-69
2023/05/22 12:09:15;;;;;;;;;;;21.90;68.60;;;;;;5077668;28;19930;-68
2023/05/22 12:11:47;;;;;;;;;;;22.00;68.80;;;;;;5071967;28;19928;-71
2023/05/22 12:14:12;;;;;;;;;;;22.00;68.90;;;;;;5069863;28;19928;-72
2023/05/22 12:16:38;;;;;;;;;;;22.10;69.00;;;;;;5079677;28;20493;-69
2023/05/22 12:19:07;;;;;;;;;;;22.10;68.90;;;;;;5075205;28;20388;-69
2023/05/22 12:21:34;;;;;;;;;;;22.10;69.20;;;;;;5076254;28;19924;-67
2023/05/22 12:24:03;;;;;;;;;;;22.20;69.20;;;;;;5077159;28;20015;-68
2023/05/22 12:26:29;;;;;;;;;;;22.20;69.20;;;;;;5080449;28;20442;-72
2023/05/22 12:28:56;;;;;;;;;;;22.10;68.90;;;;;;5073965;28;19940;-73
2023/05/22 12:31:21;;;;;;;;;;;22.10;68.90;;;;;;5060691;28;20372;-70
2023/05/22 12:33:47;;;;;;;;;;;22.10;68.80;;;;;;5056149;28;19985;-67
2023/05/22 12:36:13;;;;;;;;;;;22.20;68.70;;;;;;5079428;28;19925;-68
2023/05/22 12:38:39;;;;;;;;;;;22.20;69.20;;;;;;5067425;28;20767;-69
2023/05/22 12:41:05;;;;;;;;;;;22.20;69.00;;;;;;5094119;27;19959;-69
2023/05/22 12:43:30;;;;;;;;;;;22.10;69.00;;;;;;5059165;28;20011;-68
2023/05/22 12:45:56;;;;;;;;;;;22.10;69.10;;;;;;5061840;28;19926;-68
2023/05/22 12:48:21;;;;;;;;;;;22.00;69.00;;;;;;5066743;28;19928;-68
2023/05/22 12:50:47;;;;;;;;;;;22.00;68.80;;;;;;5065391;28;19924;-69
2023/05/22 12:53:13;;;;;;;;;;;21.90;68.80;;;;;;5063934;28;20027;-70
2023/05/22 12:55:39;;;;;;;;;;;21.90;68.80;;;;;;5063946;28;19970;-69
2023/05/22 12:58:05;;;;;;;;;;;21.80;68.80;;;;;;5071187;28;19924;-69
2023/05/22 13:00:30;;;;;;;;;;;21.80;68.80;;;;;;5064906;28;19924;-68
2023/05/22 13:02:56;;;;;;;;;;;21.70;68.80;;;;;;5060833;28;19977;-69
2023/05/22 13:05:22;;;;;;;;;;;21.70;68.80;;;;;;5044154;28;19920;-69
2023/05/22 13:07:48;;;;;;;;;;;21.60;68.70;;;;;;5065502;28;20442;-70
2023/05/22 13:10:13;;;;;;;;;;;21.60;68.70;;;;;;5060759;28;19932;-69
2023/05/22 13:12:40;;;;;;;;;;;21.60;68.70;;;;;;5062280;28;19924;-70
2023/05/22 13:15:06;;;;;;;;;;;21.60;68.60;;;;;;5060725;28;20764;-71
2023/05/22 13:17:31;;;;;;;;;;;21.60;69.00;;;;;;5063280;28;19924;-70
2023/05/22 13:19:57;;;;;;;;;;;21.60;68.80;;;;;;5063142;28;19925;-70
2023/05/22 13:22:23;;;;;;;;;;;21.60;68.70;;;;;;5061940;28;20435;-70
2023/05/22 13:24:51;;;;;;;;;;;21.60;68.50;;;;;;5063746;28;19928;-69
2023/05/22 13:27:17;;;;;;;;;;;21.40;68.30;;;;;;5063926;28;19935;-70
2023/05/22 13:29:43;;;;;;;;;;;21.60;68.40;;;;;;5062074;28;19963;-69
2023/05/22 13:32:09;;;;;;;;;;;21.50;68.30;;;;;;5063414;28;19928;-70
2023/05/22 13:34:35;;;;;;;;;;;21.50;68.30;;;;;;5067844;28;19920;-69
2023/05/22 13:37:01;;;;;;;;;;;21.50;68.30;;;;;;5062747;28;19982;-70
2023/05/22 13:39:26;;;;;;;;;;;21.50;68.30;;;;;;5063002;28;19929;-69
2023/05/22 13:41:52;;;;;;;;;;;21.50;68.30;;;;;;5062731;28;19924;-69
2023/05/22 13:44:18;;;;;;;;;;;21.50;68.20;;;;;;5063636;28;19935;-69
2023/05/22 13:46:43;;;;;;;;;;;21.50;68.20;;;;;;5064732;28;20330;-69
2023/05/22 13:49:08;;;;;;;;;;;21.50;68.20;;;;;;5064286;28;19921;-69
2023/05/22 13:51:34;;;;;;;;;;;21.50;68.10;;;;;;5089716;28;19942;-69
2023/05/22 13:54:01;;;;;;;;;;;21.50;68.10;;;;;;5065860;28;20158;-69
2023/05/22 13:56:26;;;;;;;;;;;21.50;68.10;;;;;;5064835;28;20368;-69
2023/05/22 13:58:52;;;;;;;;;;;21.40;68.10;;;;;;5084103;28;19932;-69
2023/05/22 14:01:17;;;;;;;;;;;21.40;68.00;;;;;;5098638;28;19924;-70
2023/05/22 14:03:43;;;;;;;;;;;21.50;68.00;;;;;;5084621;28;19931;-70
2023/05/22 14:06:09;;;;;;;;;;;21.40;67.90;;;;;;5087333;28;19924;-66
2023/05/22 14:08:34;;;;;;;;;;;21.50;67.90;;;;;;5101740;28;20061;-69
2023/05/22 14:11:00;;;;;;;;;;;21.40;67.90;;;;;;5087726;28;19927;-70
2023/05/22 14:13:25;;;;;;;;;;;21.50;67.90;;;;;;5086765;28;20404;-65
2023/05/22 14:15:51;;;;;;;;;;;21.50;67.80;;;;;;5104551;28;19957;-69
2023/05/22 14:18:16;;;;;;;;;;;21.40;67.80;;;;;;5086773;28;19924;-69
2023/05/22 14:20:42;;;;;;;;;;;21.40;67.70;;;;;;5089335;28;19974;-70
2023/05/22 14:23:08;;;;;;;;;;;21.40;67.70;;;;;;5088151;28;19916;-70
2023/05/22 14:25:33;;;;;;;;;;;21.40;67.70;;;;;;5087472;28;19916;-69
2023/05/22 14:27:59;;;;;;;;;;;21.50;67.70;;;;;;5083712;28;19923;-69
2023/05/22 14:30:24;;;;;;;;;;;21.40;67.60;;;;;;5089181;28;20056;-70